Lexington, Texas
Current Conditions -  °F | °C
As of 8:55 PM on Monday 22 Dec 2014 (Local Time) from KGYB Reporting Station
Clear Clear  
Wind Chill: 59°   Ceiling: Unl
Heat Index: 59°   Visibility: 10mi
Dew Point: 55°   Wind: 6mph
Humidity: 86%   Direction: 360°N
Pressure: 29.71"   Gusts: NA
Location:  30.42°N, 97.01°W
Report Text: KGYB 230255Z AUTO 36005KT 10SM CLR 15/13 A2971 RMK AO2 T01500126
Loading
Personal Weather Stations






























Interactive Weather Map New forecast layout! Learn more

10-Day Weather Forecast

Advertisements
Track Severe Weather on mobile